createdAt,value
2022-08-07T00:01:44.219Z,63.28
2022-08-07T00:04:24.466Z,62.71
2022-08-07T00:06:54.011Z,63.00
2022-08-07T00:09:35.427Z,64.59
2022-08-07T00:12:06.023Z,64.15
2022-08-07T00:14:38.462Z,64.46
2022-08-07T00:17:13.453Z,64.52
2022-08-07T00:20:01.498Z,64.35
2022-08-07T00:22:35.426Z,64.49
2022-08-07T00:25:15.854Z,64.49
2022-08-07T00:27:52.796Z,64.92
2022-08-07T00:30:27.296Z,64.67
2022-08-07T00:32:59.650Z,64.94
2022-08-07T00:35:30.492Z,64.82
2022-08-07T00:38:00.421Z,65.22
2022-08-07T00:40:39.044Z,65.57
2022-08-07T00:43:58.671Z,65.48
2022-08-07T00:46:02.015Z,65.16
2022-08-07T00:48:32.667Z,64.61
2022-08-07T00:51:03.156Z,65.39
2022-08-07T00:53:39.046Z,65.50
2022-08-07T00:56:21.086Z,65.60
2022-08-07T00:58:50.485Z,65.43
2022-08-07T01:01:21.463Z,65.97
2022-08-07T01:03:55.954Z,66.85
2022-08-07T01:06:30.701Z,66.55
2022-08-07T01:09:02.803Z,66.01
2022-08-07T01:12:10.025Z,66.39
2022-08-07T01:14:28.380Z,65.88
2022-08-07T01:17:00.618Z,66.28
2022-08-07T01:19:35.087Z,66.70
2022-08-07T01:22:16.237Z,67.06
2022-08-07T01:24:53.497Z,67.59
2022-08-07T01:27:24.802Z,67.61
2022-08-07T01:30:03.737Z,67.41
2022-08-07T01:32:33.424Z,67.81
2022-08-07T01:35:04.746Z,67.61
2022-08-07T01:37:35.682Z,67.78
2022-08-07T01:40:14.969Z,68.94
2022-08-07T01:42:58.507Z,68.27
2022-08-07T01:45:37.112Z,67.95
2022-08-07T01:48:20.459Z,68.44
2022-08-07T01:51:24.282Z,68.76
2022-08-07T01:54:08.529Z,69.38
2022-08-07T01:56:50.437Z,69.05
2022-08-07T01:59:30.804Z,69.72
2022-08-07T02:02:10.609Z,69.27
2022-08-07T02:04:55.874Z,69.42
2022-08-07T02:07:36.228Z,70.18
2022-08-07T02:10:27.379Z,69.95
2022-08-07T02:13:02.523Z,69.42
2022-08-07T02:15:41.345Z,69.54
2022-08-07T02:18:13.877Z,69.21
2022-08-07T02:20:48.542Z,69.48
2022-08-07T02:23:25.063Z,69.86
2022-08-07T02:26:31.043Z,70.83
2022-08-07T02:28:49.659Z,70.28
2022-08-07T02:31:28.831Z,69.98
2022-08-07T02:34:02.895Z,70.53
2022-08-07T02:36:38.177Z,70.99
2022-08-07T02:39:43.267Z,70.67
2022-08-07T02:42:09.848Z,70.79
2022-08-07T02:44:49.952Z,71.51
2022-08-07T02:47:25.287Z,70.83
2022-08-07T02:50:03.946Z,70.94
2022-08-07T02:52:41.570Z,71.45
2022-08-07T02:55:28.801Z,70.82
2022-08-07T02:58:15.745Z,70.60
2022-08-07T03:00:46.814Z,70.71
2022-08-07T03:03:22.598Z,71.50
2022-08-07T03:05:57.463Z,71.82
2022-08-07T03:08:29.477Z,71.76
2022-08-07T03:11:02.564Z,71.64
2022-08-07T03:13:49.774Z,71.69
2022-08-07T03:16:23.074Z,71.73
2022-08-07T03:18:59.451Z,71.28
2022-08-07T03:21:32.970Z,70.92
2022-08-07T03:24:18.027Z,71.15
2022-08-07T03:26:58.986Z,71.02
2022-08-07T03:29:44.676Z,71.51
2022-08-07T03:32:34.961Z,71.41
2022-08-07T03:35:17.362Z,71.72
2022-08-07T03:37:55.975Z,71.21
2022-08-07T03:40:36.571Z,71.17
2022-08-07T03:43:14.569Z,71.20
2022-08-07T03:45:51.034Z,71.43
2022-08-07T03:48:25.927Z,71.85
2022-08-07T03:50:57.892Z,71.71
2022-08-07T03:54:01.859Z,71.87
2022-08-07T03:56:33.572Z,71.50
2022-08-07T03:59:13.444Z,71.45
2022-08-07T04:01:54.686Z,71.36
2022-08-07T04:04:26.506Z,71.31
2022-08-07T04:07:01.050Z,71.15
2022-08-07T04:09:45.324Z,71.01
2022-08-07T04:12:28.460Z,70.77
2022-08-07T04:15:00.797Z,70.83
2022-08-07T04:18:58.298Z,71.42
2022-08-07T04:20:25.838Z,71.15
2022-08-07T04:23:01.426Z,71.08
2022-08-07T04:25:39.303Z,71.64
2022-08-07T04:28:13.312Z,71.74
2022-08-07T04:30:56.765Z,71.63
2022-08-07T04:33:32.118Z,72.02
2022-08-07T04:36:09.118Z,71.31
2022-08-07T04:38:40.698Z,71.60
2022-08-07T04:41:18.150Z,71.95
2022-08-07T04:44:11.722Z,72.06
2022-08-07T04:47:04.173Z,72.38
2022-08-07T04:49:57.887Z,73.67
2022-08-07T04:52:51.415Z,74.68
2022-08-07T04:58:11.902Z,74.20
2022-08-07T04:59:07.712Z,73.85
2022-08-07T05:01:36.723Z,73.70
2022-08-07T05:04:17.946Z,73.81
2022-08-07T05:07:20.466Z,74.69
2022-08-07T05:10:00.985Z,75.48
2022-08-07T05:12:51.331Z,75.11
2022-08-07T05:15:31.896Z,75.29
2022-08-07T05:18:10.357Z,74.97
2022-08-07T05:20:49.150Z,74.65
2022-08-07T05:23:29.828Z,75.32
2022-08-07T05:26:13.869Z,74.52
2022-08-07T05:28:56.084Z,74.96
2022-08-07T05:31:37.804Z,75.56
2022-08-07T05:34:15.755Z,75.38
2022-08-07T05:36:52.817Z,75.59
2022-08-07T05:40:16.750Z,76.33
2022-08-07T05:42:40.092Z,76.03
2022-08-07T05:45:46.122Z,76.15
2022-08-07T05:48:07.856Z,76.18
2022-08-07T05:50:42.902Z,76.43
2022-08-07T05:54:14.151Z,76.49
2022-08-07T05:56:10.089Z,76.40
2022-08-07T05:58:52.483Z,76.61
2022-08-07T06:01:34.859Z,76.74
2022-08-07T06:04:09.648Z,76.28
2022-08-07T06:06:46.442Z,76.03
2022-08-07T06:09:20.121Z,76.19
2022-08-07T06:11:52.453Z,76.11
2022-08-07T06:14:28.804Z,76.13
2022-08-07T06:17:07.058Z,75.63
2022-08-07T06:19:47.796Z,75.83
2022-08-07T06:22:38.496Z,75.51
2022-08-07T06:25:27.058Z,75.64
2022-08-07T06:28:07.586Z,75.74
2022-08-07T06:30:42.711Z,75.81
2022-08-07T06:33:20.594Z,75.46
2022-08-07T06:36:12.123Z,75.19
2022-08-07T06:38:58.816Z,75.54
2022-08-07T06:42:01.252Z,75.35
2022-08-07T06:45:17.960Z,74.79
2022-08-07T06:47:58.779Z,74.55
2022-08-07T06:50:47.838Z,74.57
2022-08-07T06:55:27.153Z,74.13
2022-08-07T06:56:16.241Z,74.17
2022-08-07T07:00:12.530Z,73.93
2022-08-07T07:01:48.809Z,73.49
2022-08-07T07:04:28.091Z,73.37
2022-08-07T07:07:10.771Z,73.21
2022-08-07T07:09:50.724Z,72.87
2022-08-07T07:12:36.511Z,72.25
2022-08-07T07:15:24.238Z,71.56
2022-08-07T07:18:05.644Z,71.18
2022-08-07T07:20:42.924Z,71.08
2022-08-07T07:24:08.377Z,70.73
2022-08-07T07:26:33.869Z,70.35
2022-08-07T07:29:56.955Z,70.13
2022-08-07T07:31:57.974Z,69.45
2022-08-07T07:34:33.208Z,68.67
2022-08-07T07:37:21.635Z,68.02
2022-08-07T07:40:01.406Z,67.33
2022-08-07T07:42:33.449Z,66.58
2022-08-07T07:45:05.607Z,65.61
2022-08-07T07:47:51.970Z,64.03
2022-08-07T07:50:33.160Z,63.15
2022-08-07T07:53:13.686Z,62.32
2022-08-07T07:55:57.870Z,61.44
2022-08-07T07:58:36.988Z,61.16
2022-08-07T08:02:03.684Z,59.25
2022-08-07T08:04:11.529Z,59.00
2022-08-07T08:06:50.863Z,58.11
2022-08-07T08:09:29.120Z,57.83
2022-08-07T08:12:05.204Z,56.89
2022-08-07T08:14:37.235Z,55.61
2022-08-07T08:17:32.483Z,54.76
2022-08-07T08:20:17.733Z,54.45
2022-08-07T08:23:14.239Z,54.86
2022-08-07T08:26:07.198Z,54.20
2022-08-07T08:28:44.860Z,53.61
2022-08-07T08:31:59.010Z,52.48
2022-08-07T08:34:27.133Z,52.56
2022-08-07T08:36:59.893Z,51.93
2022-08-07T08:39:39.339Z,51.52
2022-08-07T08:42:30.161Z,50.84
2022-08-07T08:45:15.554Z,51.61
2022-08-07T08:47:55.470Z,49.70
2022-08-07T08:50:39.476Z,49.74
2022-08-07T08:53:21.940Z,49.51
2022-08-07T08:56:03.898Z,47.85
2022-08-07T08:58:44.466Z,47.97
2022-08-07T09:01:21.866Z,48.36
2022-08-07T09:04:02.844Z,48.03
2022-08-07T09:06:50.685Z,47.63
2022-08-07T09:09:44.739Z,47.54
2022-08-07T09:12:39.095Z,47.97
2022-08-07T09:16:22.881Z,47.59
2022-08-07T09:18:58.515Z,47.79
2022-08-07T09:22:10.155Z,48.01
2022-08-07T09:24:59.687Z,48.07
2022-08-07T09:28:00.515Z,47.59
2022-08-07T09:30:46.441Z,46.45
2022-08-07T09:33:57.072Z,46.75
2022-08-07T09:36:43.107Z,46.92
2022-08-07T09:39:54.016Z,47.62
2022-08-07T09:42:41.907Z,47.73
2022-08-07T09:47:49.843Z,47.44
2022-08-07T09:48:29.626Z,47.06
2022-08-07T09:51:14.782Z,46.24
2022-08-07T09:54:04.986Z,45.83
2022-08-07T09:57:04.295Z,45.63
2022-08-07T10:00:07.940Z,45.37
2022-08-07T10:04:05.537Z,44.49
2022-08-07T10:06:55.603Z,43.94
2022-08-07T10:10:01.062Z,42.90
2022-08-07T10:12:59.687Z,42.67
2022-08-07T10:15:50.245Z,41.71
2022-08-07T10:18:44.499Z,40.28
2022-08-07T10:22:16.332Z,38.93
2022-08-07T10:25:22.569Z,38.11
2022-08-07T10:28:24.340Z,38.78
2022-08-07T10:31:12.094Z,38.88
2022-08-07T10:34:06.218Z,39.20
2022-08-07T10:37:12.480Z,38.87
2022-08-07T10:40:05.641Z,38.85
2022-08-07T10:42:43.982Z,38.90
2022-08-07T10:45:48.030Z,39.09
2022-08-07T10:48:41.554Z,39.05
2022-08-07T10:51:39.712Z,39.56
2022-08-07T10:54:18.474Z,39.36
2022-08-07T10:57:07.982Z,39.64
2022-08-07T11:00:08.839Z,39.38
2022-08-07T11:02:49.354Z,38.19
2022-08-07T11:05:50.624Z,37.06
2022-08-07T11:08:33.549Z,36.41
2022-08-07T11:11:10.306Z,36.84
2022-08-07T11:14:46.197Z,36.89
2022-08-07T11:16:49.346Z,37.71
2022-08-07T11:19:30.666Z,37.72
2022-08-07T11:22:26.572Z,37.19
2022-08-07T11:25:10.476Z,37.93
2022-08-07T11:28:02.585Z,37.63
2022-08-07T11:30:54.391Z,37.62
2022-08-07T11:33:54.235Z,37.39
2022-08-07T11:36:49.658Z,37.21
2022-08-07T11:40:00.023Z,38.00
2022-08-07T11:42:46.236Z,37.71
2022-08-07T11:45:40.673Z,37.13
2022-08-07T11:48:44.160Z,35.75
2022-08-07T11:51:46.816Z,35.02
2022-08-07T11:54:46.506Z,34.71
2022-08-07T11:58:00.640Z,34.74
2022-08-07T12:00:39.399Z,35.17
2022-08-07T12:03:50.824Z,35.48
2022-08-07T12:06:51.781Z,34.85
2022-08-07T12:09:37.621Z,33.67
2022-08-07T12:12:12.035Z,33.06
2022-08-07T12:14:55.352Z,31.99
2022-08-07T12:17:37.430Z,32.42
2022-08-07T12:20:30.103Z,31.86
2022-08-07T12:23:37.293Z,31.59
2022-08-07T12:26:28.569Z,31.63
2022-08-07T12:29:11.302Z,32.16
2022-08-07T12:31:53.097Z,32.99
2022-08-07T12:34:36.060Z,33.51
2022-08-07T12:37:08.119Z,33.62
2022-08-07T12:39:51.617Z,34.19
2022-08-07T12:42:32.062Z,35.45
2022-08-07T12:45:10.394Z,34.97
2022-08-07T12:47:54.896Z,35.15
2022-08-07T12:50:48.985Z,34.86
2022-08-07T12:53:30.255Z,33.83
2022-08-07T12:56:30.466Z,32.90
2022-08-07T12:59:08.108Z,31.54
2022-08-07T13:01:53.851Z,30.91
2022-08-07T13:04:49.084Z,30.21
2022-08-07T13:08:13.920Z,29.54
2022-08-07T13:11:01.158Z,28.69
2022-08-07T13:13:50.300Z,29.54
2022-08-07T13:16:30.840Z,30.31
2022-08-07T13:19:21.896Z,30.05
2022-08-07T13:22:19.779Z,29.56
2022-08-07T13:25:03.012Z,29.82
2022-08-07T13:28:11.458Z,28.28
2022-08-07T13:30:40.162Z,27.92
2022-08-07T13:34:30.213Z,27.35
2022-08-07T13:36:33.396Z,28.04
2022-08-07T13:39:48.967Z,27.64
2022-08-07T13:42:10.568Z,27.51
2022-08-07T13:44:43.308Z,27.30
2022-08-07T13:48:05.906Z,26.93
2022-08-07T13:50:32.541Z,26.77
2022-08-07T13:53:06.715Z,27.32
2022-08-07T13:55:54.252Z,26.87
2022-08-07T13:58:50.401Z,26.83
2022-08-07T14:01:29.247Z,27.53
2022-08-07T14:04:11.231Z,27.69
2022-08-07T14:06:50.313Z,26.43
2022-08-07T14:10:02.013Z,25.60
2022-08-07T14:12:28.128Z,26.10
2022-08-07T14:15:06.267Z,26.96
2022-08-07T14:18:24.530Z,26.62
2022-08-07T14:20:43.014Z,26.87
2022-08-07T14:23:31.340Z,27.25
2022-08-07T14:26:30.516Z,27.79
2022-08-07T14:30:02.996Z,27.74
2022-08-07T14:31:57.829Z,28.53
2022-08-07T14:34:33.117Z,29.07
2022-08-07T14:37:05.430Z,30.02
2022-08-07T14:40:15.466Z,29.67
2022-08-07T14:43:00.864Z,29.90
2022-08-07T14:45:46.367Z,29.41
2022-08-07T14:48:27.294Z,28.89
2022-08-07T14:51:01.559Z,28.65
2022-08-07T14:56:33.045Z,28.99
2022-08-07T14:59:13.734Z,29.33
2022-08-07T15:01:58.330Z,29.14
2022-08-07T15:04:29.038Z,29.21
2022-08-07T15:07:00.983Z,28.92
2022-08-07T15:09:57.974Z,28.23
2022-08-07T15:12:30.446Z,28.99
2022-08-07T15:15:08.382Z,29.19
2022-08-07T15:17:55.559Z,28.98
2022-08-07T15:20:55.236Z,27.79
2022-08-07T15:25:16.379Z,27.87
2022-08-07T15:26:33.366Z,27.58
2022-08-07T15:30:06.419Z,27.33
2022-08-07T15:32:04.918Z,26.89
2022-08-07T15:38:17.583Z,26.95
2022-08-07T15:43:53.476Z,27.08
2022-08-07T15:46:31.685Z,28.28
2022-08-07T15:52:02.991Z,27.79
2022-08-07T15:54:39.452Z,28.00
2022-08-07T15:57:39.229Z,28.06
2022-08-07T16:00:06.842Z,27.56
2022-08-07T16:02:49.214Z,27.78
2022-08-07T16:05:23.087Z,28.08
2022-08-07T16:08:33.590Z,29.18
2022-08-07T16:11:28.986Z,29.29
2022-08-07T16:14:09.001Z,30.17
2022-08-07T16:18:00.712Z,31.77
2022-08-07T16:20:34.662Z,32.36
2022-08-07T16:23:55.331Z,31.80
2022-08-07T16:26:58.788Z,32.19
2022-08-07T16:30:10.784Z,32.35
2022-08-07T16:32:54.393Z,31.68
2022-08-07T16:35:52.316Z,32.08
2022-08-07T16:39:01.232Z,32.08
2022-08-07T16:42:16.979Z,31.53
2022-08-07T16:45:19.152Z,31.61
2022-08-07T16:48:58.430Z,32.16
2022-08-07T16:51:57.626Z,32.13
2022-08-07T16:54:55.824Z,32.50
2022-08-07T16:58:02.095Z,32.65
2022-08-07T17:00:42.957Z,33.08
2022-08-07T17:03:58.106Z,33.65
2022-08-07T17:06:41.079Z,33.33
2022-08-07T17:10:06.594Z,33.13
2022-08-07T17:12:34.330Z,33.20
2022-08-07T17:15:20.137Z,33.68
2022-08-07T17:17:58.787Z,33.15
2022-08-07T17:20:37.394Z,33.47
2022-08-07T17:23:32.103Z,33.44
2022-08-07T17:26:24.248Z,33.93
2022-08-07T17:29:18.346Z,33.54
2022-08-07T17:32:31.287Z,34.15
2022-08-07T17:35:50.302Z,34.41
2022-08-07T17:38:32.258Z,34.00
2022-08-07T17:42:01.140Z,33.41
2022-08-07T17:44:33.252Z,33.24
2022-08-07T17:47:17.092Z,32.25
2022-08-07T17:50:04.731Z,32.46
2022-08-07T17:52:44.495Z,32.56
2022-08-07T17:56:00.364Z,32.91
2022-08-07T17:58:30.530Z,33.29
2022-08-07T18:01:20.572Z,33.37
2022-08-07T18:04:16.313Z,33.76
2022-08-07T18:07:19.653Z,33.22
2022-08-07T18:10:06.863Z,32.88
2022-08-07T18:13:09.939Z,33.05
2022-08-07T18:16:08.618Z,33.16
2022-08-07T18:21:04.141Z,33.52
2022-08-07T18:21:58.352Z,33.72
2022-08-07T18:24:36.788Z,34.02
2022-08-07T18:27:38.339Z,34.20
2022-08-07T18:30:33.067Z,34.30
2022-08-07T18:33:39.067Z,34.93
2022-08-07T18:36:41.045Z,34.74
2022-08-07T18:40:07.919Z,35.29
2022-08-07T18:42:27.482Z,35.47
2022-08-07T18:45:40.041Z,35.44
2022-08-07T18:48:09.446Z,35.29
2022-08-07T18:51:09.205Z,35.39
2022-08-07T18:54:05.174Z,35.72
2022-08-07T18:57:30.751Z,35.59
2022-08-07T19:00:32.484Z,35.76
2022-08-07T19:03:12.267Z,35.92
2022-08-07T19:06:03.371Z,36.69
2022-08-07T19:09:09.613Z,36.35
2022-08-07T19:12:26.686Z,37.04
2022-08-07T19:16:03.020Z,36.71
2022-08-07T19:18:18.349Z,36.78
2022-08-07T19:21:47.884Z,37.65
2022-08-07T19:24:32.327Z,37.35
2022-08-07T19:28:29.919Z,38.02
2022-08-07T19:31:03.754Z,37.50
2022-08-07T19:32:59.726Z,37.79
2022-08-07T19:35:33.755Z,38.06
2022-08-07T19:38:15.120Z,38.40
2022-08-07T19:40:51.485Z,38.29
2022-08-07T19:43:50.029Z,38.18
2022-08-07T19:46:17.767Z,38.83
2022-08-07T19:48:53.492Z,39.05
2022-08-07T19:51:52.364Z,38.91
2022-08-07T19:54:31.665Z,38.77
2022-08-07T19:58:02.927Z,39.43
2022-08-07T20:00:10.170Z,39.10
2022-08-07T20:02:52.113Z,39.31
2022-08-07T20:05:27.992Z,39.49
2022-08-07T20:08:02.542Z,40.50
2022-08-07T20:10:54.483Z,39.67
2022-08-07T20:13:36.063Z,40.38
2022-08-07T20:16:32.383Z,40.08
2022-08-07T20:19:01.350Z,40.43
2022-08-07T20:21:46.736Z,40.69
2022-08-07T20:24:28.698Z,40.50
2022-08-07T20:27:03.089Z,41.54
2022-08-07T20:29:49.050Z,41.32
2022-08-07T20:32:40.127Z,41.44
2022-08-07T20:35:15.815Z,41.94
2022-08-07T20:37:55.641Z,41.54
2022-08-07T20:40:34.316Z,41.71
2022-08-07T20:43:09.631Z,41.93
2022-08-07T20:46:26.125Z,41.46
2022-08-07T20:49:54.319Z,41.16
2022-08-07T20:51:40.279Z,41.52
2022-08-07T20:54:15.327Z,42.10
2022-08-07T20:57:04.617Z,41.91
2022-08-07T21:00:07.502Z,41.58
2022-08-07T21:02:54.098Z,42.23
2022-08-07T21:05:51.342Z,42.53
2022-08-07T21:08:37.002Z,42.58
2022-08-07T21:11:14.469Z,42.12
2022-08-07T21:14:16.665Z,42.60
2022-08-07T21:16:56.960Z,42.51
2022-08-07T21:19:51.039Z,41.88
2022-08-07T21:22:33.862Z,41.93
2022-08-07T21:25:21.585Z,42.67
2022-08-07T21:28:13.543Z,42.62
2022-08-07T21:30:58.035Z,42.73
2022-08-07T21:33:41.340Z,42.88
2022-08-07T21:36:32.343Z,42.69
2022-08-07T21:39:45.293Z,43.08
2022-08-07T21:42:42.902Z,43.24
2022-08-07T21:46:07.806Z,43.20
2022-08-07T21:48:33.520Z,43.19
2022-08-07T21:51:19.481Z,43.73
2022-08-07T21:54:02.335Z,44.01
2022-08-07T21:56:49.134Z,44.29
2022-08-07T22:00:02.754Z,44.49
2022-08-07T22:02:35.823Z,44.56
2022-08-07T22:05:08.635Z,44.96
2022-08-07T22:07:58.762Z,44.76
2022-08-07T22:10:37.370Z,45.13
2022-08-07T22:13:16.020Z,46.25
2022-08-07T22:16:42.500Z,46.22
2022-08-07T22:18:54.569Z,46.42
2022-08-07T22:22:01.935Z,46.10
2022-08-07T22:24:41.987Z,46.46
2022-08-07T22:27:20.906Z,46.78
2022-08-07T22:30:13.647Z,47.45
2022-08-07T22:33:02.632Z,47.35
2022-08-07T22:35:43.182Z,47.09
2022-08-07T22:38:29.858Z,47.33
2022-08-07T22:41:09.060Z,47.16
2022-08-07T22:43:45.050Z,46.81
2022-08-07T22:47:02.924Z,47.37
2022-08-07T22:49:56.530Z,48.14
2022-08-07T22:52:49.603Z,47.70
2022-08-07T22:55:47.888Z,48.30
2022-08-07T22:58:54.097Z,48.65
2022-08-07T23:01:58.973Z,48.67
2022-08-07T23:06:07.013Z,48.87
2022-08-07T23:08:37.321Z,49.00
2022-08-07T23:11:45.820Z,48.88
2022-08-07T23:14:34.646Z,49.76
2022-08-07T23:17:41.672Z,50.48
2022-08-07T23:20:53.501Z,50.33
2022-08-07T23:24:07.025Z,50.98
2022-08-07T23:27:08.252Z,50.23
2022-08-07T23:30:35.817Z,51.10
2022-08-07T23:34:33.727Z,51.35
2022-08-07T23:37:19.493Z,51.33
2022-08-07T23:39:55.643Z,52.04
2022-08-07T23:42:35.357Z,51.02
2022-08-07T23:45:33.447Z,51.94
2022-08-07T23:48:43.477Z,52.96
2022-08-07T23:53:00.637Z,52.44
2022-08-07T23:54:44.555Z,52.16
2022-08-07T23:57:30.514Z,54.00
